sensor_id;sensor_type;location;lat;lon;timestamp;pressure;altitude;pressure_sealevel;temperature;humidity
2785;BME280;57944;48.722;9.316;2023-02-10T00:01:45;99941.34;;;-6.52;100.00
2785;BME280;57944;48.722;9.316;2023-02-10T00:04:15;99942.16;;;-6.51;100.00
2785;BME280;57944;48.722;9.316;2023-02-10T00:06:45;99945.44;;;-6.49;100.00
2785;BME280;57944;48.722;9.316;2023-02-10T00:09:15;99941.22;;;-6.45;100.00
2785;BME280;57944;48.722;9.316;2023-02-10T00:11:45;99948.66;;;-6.47;100.00
2785;BME280;57944;48.722;9.316;2023-02-10T00:14:30;99943.06;;;-6.54;100.00
2785;BME280;57944;48.722;9.316;2023-02-10T00:17:00;99935.03;;;-6.65;100.00
2785;BME280;57944;48.722;9.316;2023-02-10T00:19:30;99932.63;;;-6.68;100.00
2785;BME280;57944;48.722;9.316;2023-02-10T00:22:03;99933.63;;;-6.75;100.00
2785;BME280;57944;48.722;9.316;2023-02-10T00:24:33;99929.66;;;-6.82;100.00
2785;BME280;57944;48.722;9.316;2023-02-10T00:27:03;99936.31;;;-6.86;100.00
2785;BME280;57944;48.722;9.316;2023-02-10T00:29:36;99930.63;;;-6.89;100.00
2785;BME280;57944;48.722;9.316;2023-02-10T00:32:06;99931.31;;;-6.83;100.00
2785;BME280;57944;48.722;9.316;2023-02-10T00:34:39;99928.13;;;-6.88;100.00
2785;BME280;57944;48.722;9.316;2023-02-10T00:37:09;99935.25;;;-6.74;100.00
2785;BME280;57944;48.722;9.316;2023-02-10T00:39:39;99936.88;;;-6.73;100.00
2785;BME280;57944;48.722;9.316;2023-02-10T00:42:09;99938.63;;;-6.77;100.00
2785;BME280;57944;48.722;9.316;2023-02-10T00:44:42;99940.25;;;-6.77;100.00
2785;BME280;57944;48.722;9.316;2023-02-10T00:47:12;99942.09;;;-6.85;100.00
2785;BME280;57944;48.722;9.316;2023-02-10T00:49:42;99944.75;;;-6.93;100.00
2785;BME280;57944;48.722;9.316;2023-02-10T00:52:12;99943.88;;;-6.90;100.00
2785;BME280;57944;48.722;9.316;2023-02-10T00:54:42;99952.00;;;-6.85;100.00
2785;BME280;57944;48.722;9.316;2023-02-10T00:57:12;99953.00;;;-6.92;100.00
2785;BME280;57944;48.722;9.316;2023-02-10T00:59:46;99955.56;;;-6.95;100.00
2785;BME280;57944;48.722;9.316;2023-02-10T01:02:16;99959.56;;;-6.90;100.00
2785;BME280;57944;48.722;9.316;2023-02-10T01:04:46;99961.34;;;-6.97;100.00
2785;BME280;57944;48.722;9.316;2023-02-10T01:07:16;99959.88;;;-7.05;100.00
2785;BME280;57944;48.722;9.316;2023-02-10T01:09:46;99962.47;;;-7.10;100.00
2785;BME280;57944;48.722;9.316;2023-02-10T01:12:16;99957.63;;;-7.16;100.00
2785;BME280;57944;48.722;9.316;2023-02-10T01:14:49;99965.84;;;-7.14;100.00
2785;BME280;57944;48.722;9.316;2023-02-10T01:17:20;99961.75;;;-7.16;100.00
2785;BME280;57944;48.722;9.316;2023-02-10T01:19:50;99972.47;;;-7.16;100.00
2785;BME280;57944;48.722;9.316;2023-02-10T01:22:20;99979.03;;;-7.12;100.00
2785;BME280;57944;48.722;9.316;2023-02-10T01:24:51;99979.81;;;-7.10;100.00
2785;BME280;57944;48.722;9.316;2023-02-10T01:27:21;99980.63;;;-7.09;100.00
2785;BME280;57944;48.722;9.316;2023-02-10T01:29:54;99969.97;;;-7.13;100.00
2785;BME280;57944;48.722;9.316;2023-02-10T01:32:24;99964.34;;;-7.21;100.00
2785;BME280;57944;48.722;9.316;2023-02-10T01:34:54;99965.09;;;-7.17;100.00
2785;BME280;57944;48.722;9.316;2023-02-10T01:37:24;99964.00;;;-7.04;100.00
2785;BME280;57944;48.722;9.316;2023-02-10T01:39:54;99961.53;;;-7.04;100.00
2785;BME280;57944;48.722;9.316;2023-02-10T01:42:26;99957.25;;;-6.98;100.00
2785;BME280;57944;48.722;9.316;2023-02-10T01:45:18;99958.47;;;-6.77;100.00
2785;BME280;57944;48.722;9.316;2023-02-10T01:47:51;99962.75;;;-6.85;100.00
2785;BME280;57944;48.722;9.316;2023-02-10T01:50:27;99964.28;;;-6.79;100.00
2785;BME280;57944;48.722;9.316;2023-02-10T01:52:59;99962.00;;;-6.88;100.00
2785;BME280;57944;48.722;9.316;2023-02-10T01:55:33;99953.81;;;-6.90;100.00
2785;BME280;57944;48.722;9.316;2023-02-10T01:58:08;99955.50;;;-6.92;100.00
2785;BME280;57944;48.722;9.316;2023-02-10T02:00:44;99961.41;;;-7.00;100.00
2785;BME280;57944;48.722;9.316;2023-02-10T02:03:15;99957.44;;;-7.07;100.00
2785;BME280;57944;48.722;9.316;2023-02-10T02:05:45;99946.66;;;-7.04;100.00
2785;BME280;57944;48.722;9.316;2023-02-10T02:08:21;99951.78;;;-7.13;100.00
2785;BME280;57944;48.722;9.316;2023-02-10T02:11:07;99957.69;;;-7.19;100.00
2785;BME280;57944;48.722;9.316;2023-02-10T02:14:01;99964.00;;;-7.04;100.00
2785;BME280;57944;48.722;9.316;2023-02-10T02:16:52;99970.72;;;-7.11;100.00
2785;BME280;57944;48.722;9.316;2023-02-10T02:20:01;99979.09;;;-7.15;100.00
2785;BME280;57944;48.722;9.316;2023-02-10T02:23:26;99984.34;;;-7.30;100.00
2785;BME280;57944;48.722;9.316;2023-02-10T02:26:40;99983.66;;;-7.38;100.00
2785;BME280;57944;48.722;9.316;2023-02-10T02:29:50;99985.47;;;-7.47;100.00
2785;BME280;57944;48.722;9.316;2023-02-10T02:32:33;99989.59;;;-7.46;100.00
2785;BME280;57944;48.722;9.316;2023-02-10T02:35:12;99989.53;;;-7.43;100.00
2785;BME280;57944;48.722;9.316;2023-02-10T02:37:46;99986.91;;;-7.35;100.00
2785;BME280;57944;48.722;9.316;2023-02-10T02:40:17;99989.41;;;-7.36;100.00
2785;BME280;57944;48.722;9.316;2023-02-10T02:42:47;99982.78;;;-7.34;100.00
2785;BME280;57944;48.722;9.316;2023-02-10T02:45:21;99987.81;;;-7.39;100.00
2785;BME280;57944;48.722;9.316;2023-02-10T02:48:15;99993.56;;;-7.38;100.00
2785;BME280;57944;48.722;9.316;2023-02-10T02:50:59;99996.97;;;-7.43;100.00
2785;BME280;57944;48.722;9.316;2023-02-10T02:53:39;99996.22;;;-7.48;100.00
2785;BME280;57944;48.722;9.316;2023-02-10T02:56:28;99992.19;;;-7.53;100.00
2785;BME280;57944;48.722;9.316;2023-02-10T02:59:09;99989.78;;;-7.55;100.00
2785;BME280;57944;48.722;9.316;2023-02-10T03:02:01;100010.59;;;-7.67;100.00
2785;BME280;57944;48.722;9.316;2023-02-10T03:04:36;100005.56;;;-7.62;100.00
2785;BME280;57944;48.722;9.316;2023-02-10T03:07:07;100004.72;;;-7.61;100.00
2785;BME280;57944;48.722;9.316;2023-02-10T03:09:38;100002.28;;;-7.62;100.00
2785;BME280;57944;48.722;9.316;2023-02-10T03:12:08;100002.19;;;-7.58;100.00
2785;BME280;57944;48.722;9.316;2023-02-10T03:14:40;99995.41;;;-7.48;100.00
2785;BME280;57944;48.722;9.316;2023-02-10T03:17:10;100002.09;;;-7.52;100.00
2785;BME280;57944;48.722;9.316;2023-02-10T03:19:42;100005.28;;;-7.47;100.00
2785;BME280;57944;48.722;9.316;2023-02-10T03:22:12;100004.56;;;-7.52;100.00
2785;BME280;57944;48.722;9.316;2023-02-10T03:24:42;100002.91;;;-7.53;100.00
2785;BME280;57944;48.722;9.316;2023-02-10T03:27:12;100003.78;;;-7.55;100.00
2785;BME280;57944;48.722;9.316;2023-02-10T03:29:43;100006.38;;;-7.61;100.00
2785;BME280;57944;48.722;9.316;2023-02-10T03:32:15;100005.44;;;-7.56;100.00
2785;BME280;57944;48.722;9.316;2023-02-10T03:34:48;100009.28;;;-7.41;100.00
2785;BME280;57944;48.722;9.316;2023-02-10T03:37:18;100013.22;;;-7.29;100.00
2785;BME280;57944;48.722;9.316;2023-02-10T03:39:48;100010.81;;;-7.32;100.00
2785;BME280;57944;48.722;9.316;2023-02-10T03:42:18;100012.69;;;-7.44;100.00
2785;BME280;57944;48.722;9.316;2023-02-10T03:44:48;100012.81;;;-7.53;100.00
2785;BME280;57944;48.722;9.316;2023-02-10T03:47:18;100020.34;;;-7.57;100.00
2785;BME280;57944;48.722;9.316;2023-02-10T03:49:51;100013.00;;;-7.62;100.00
2785;BME280;57944;48.722;9.316;2023-02-10T03:52:21;100019.50;;;-7.56;100.00
2785;BME280;57944;48.722;9.316;2023-02-10T03:54:51;100025.25;;;-7.56;100.00
2785;BME280;57944;48.722;9.316;2023-02-10T03:57:21;100029.41;;;-7.56;100.00
2785;BME280;57944;48.722;9.316;2023-02-10T03:59:51;100026.19;;;-7.60;100.00
2785;BME280;57944;48.722;9.316;2023-02-10T04:02:22;100030.28;;;-7.59;100.00
2785;BME280;57944;48.722;9.316;2023-02-10T04:04:54;100032.69;;;-7.56;100.00
2785;BME280;57944;48.722;9.316;2023-02-10T04:07:24;100032.09;;;-7.69;100.00
2785;BME280;57944;48.722;9.316;2023-02-10T04:09:55;100031.38;;;-7.75;100.00
2785;BME280;57944;48.722;9.316;2023-02-10T04:12:25;100036.94;;;-7.62;100.00
2785;BME280;57944;48.722;9.316;2023-02-10T04:14:55;100034.22;;;-7.49;100.00
2785;BME280;57944;48.722;9.316;2023-02-10T04:17:25;100035.00;;;-7.47;100.00
2785;BME280;57944;48.722;9.316;2023-02-10T04:19:58;100031.94;;;-7.59;100.00
2785;BME280;57944;48.722;9.316;2023-02-10T04:22:28;100037.75;;;-7.64;100.00
2785;BME280;57944;48.722;9.316;2023-02-10T04:24:58;100041.16;;;-7.68;100.00
2785;BME280;57944;48.722;9.316;2023-02-10T04:27:28;100040.41;;;-7.73;100.00
2785;BME280;57944;48.722;9.316;2023-02-10T04:29:58;100033.91;;;-7.78;100.00
2785;BME280;57944;48.722;9.316;2023-02-10T04:32:28;100036.31;;;-7.75;100.00
2785;BME280;57944;48.722;9.316;2023-02-10T04:35:01;100040.34;;;-7.70;100.00
2785;BME280;57944;48.722;9.316;2023-02-10T04:37:31;100038.84;;;-7.78;100.00
2785;BME280;57944;48.722;9.316;2023-02-10T04:40:01;100041.53;;;-7.91;100.00
2785;BME280;57944;48.722;9.316;2023-02-10T04:42:31;100034.16;;;-7.94;100.00
2785;BME280;57944;48.722;9.316;2023-02-10T04:45:01;100039.06;;;-7.92;100.00
2785;BME280;57944;48.722;9.316;2023-02-10T04:47:34;100042.56;;;-8.05;100.00
2785;BME280;57944;48.722;9.316;2023-02-10T04:50:08;100039.34;;;-8.09;100.00
2785;BME280;57944;48.722;9.316;2023-02-10T04:52:38;100040.00;;;-7.98;100.00
2785;BME280;57944;48.722;9.316;2023-02-10T04:55:08;100042.56;;;-8.04;100.00
2785;BME280;57944;48.722;9.316;2023-02-10T04:57:38;100041.88;;;-8.12;100.00
2785;BME280;57944;48.722;9.316;2023-02-10T05:00:10;100045.91;;;-8.08;100.00
2785;BME280;57944;48.722;9.316;2023-02-10T05:02:41;100041.75;;;-8.04;100.00
2785;BME280;57944;48.722;9.316;2023-02-10T05:05:14;100043.31;;;-7.99;100.00
2785;BME280;57944;48.722;9.316;2023-02-10T05:07:44;100049.13;;;-8.01;100.00
2785;BME280;57944;48.722;9.316;2023-02-10T05:10:14;100063.22;;;-8.05;100.00
2785;BME280;57944;48.722;9.316;2023-02-10T05:12:44;100059.19;;;-8.14;100.00
2785;BME280;57944;48.722;9.316;2023-02-10T05:15:15;100056.81;;;-8.18;100.00
2785;BME280;57944;48.722;9.316;2023-02-10T05:17:45;100064.34;;;-8.26;100.00
2785;BME280;57944;48.722;9.316;2023-02-10T05:20:18;100063.63;;;-8.33;100.00
2785;BME280;57944;48.722;9.316;2023-02-10T05:22:48;100061.84;;;-8.24;100.00
2785;BME280;57944;48.722;9.316;2023-02-10T05:25:18;100064.31;;;-8.24;100.00
2785;BME280;57944;48.722;9.316;2023-02-10T05:27:48;100066.13;;;-8.36;100.00
2785;BME280;57944;48.722;9.316;2023-02-10T05:30:19;100066.13;;;-8.37;100.00
2785;BME280;57944;48.722;9.316;2023-02-10T05:32:49;100066.22;;;-8.40;100.00
2785;BME280;57944;48.722;9.316;2023-02-10T05:35:22;100060.34;;;-8.35;100.00
2785;BME280;57944;48.722;9.316;2023-02-10T05:37:52;100064.59;;;-8.43;100.00
2785;BME280;57944;48.722;9.316;2023-02-10T05:40:22;100071.91;;;-8.37;100.00
2785;BME280;57944;48.722;9.316;2023-02-10T05:42:52;100071.84;;;-8.34;100.00
2785;BME280;57944;48.722;9.316;2023-02-10T05:45:22;100072.78;;;-8.39;100.00
2785;BME280;57944;48.722;9.316;2023-02-10T05:47:53;100071.91;;;-8.37;100.00
2785;BME280;57944;48.722;9.316;2023-02-10T05:50:25;100076.00;;;-8.34;100.00
2785;BME280;57944;48.722;9.316;2023-02-10T05:52:56;100075.19;;;-8.35;100.00
2785;BME280;57944;48.722;9.316;2023-02-10T05:55:26;100080.16;;;-8.38;100.00
2785;BME280;57944;48.722;9.316;2023-02-10T05:57:56;100088.34;;;-8.33;100.00
2785;BME280;57944;48.722;9.316;2023-02-10T06:00:27;100086.59;;;-8.24;100.00
2785;BME280;57944;48.722;9.316;2023-02-10T06:02:57;100090.69;;;-8.23;100.00
2785;BME280;57944;48.722;9.316;2023-02-10T06:05:30;100090.69;;;-8.23;100.00
2785;BME280;57944;48.722;9.316;2023-02-10T06:08:00;100096.34;;;-8.17;100.00
2785;BME280;57944;48.722;9.316;2023-02-10T06:10:30;100102.06;;;-8.12;100.00
2785;BME280;57944;48.722;9.316;2023-02-10T06:13:00;100103.66;;;-8.09;100.00
2785;BME280;57944;48.722;9.316;2023-02-10T06:15:30;100104.56;;;-8.13;100.00
2785;BME280;57944;48.722;9.316;2023-02-10T06:18:00;100103.66;;;-8.07;100.00
2785;BME280;57944;48.722;9.316;2023-02-10T06:20:32;100104.56;;;-8.16;100.00
2785;BME280;57944;48.722;9.316;2023-02-10T06:23:03;100107.16;;;-8.22;100.00
2785;BME280;57944;48.722;9.316;2023-02-10T06:25:33;100110.38;;;-8.17;100.00
2785;BME280;57944;48.722;9.316;2023-02-10T06:28:05;100120.06;;;-8.03;100.00
2785;BME280;57944;48.722;9.316;2023-02-10T06:30:35;100114.13;;;-7.92;100.00
2785;BME280;57944;48.722;9.316;2023-02-10T06:33:05;100124.59;;;-7.74;100.00
2785;BME280;57944;48.722;9.316;2023-02-10T06:35:38;100122.31;;;-7.87;100.00
2785;BME280;57944;48.722;9.316;2023-02-10T06:38:08;100122.50;;;-8.00;100.00
2785;BME280;57944;48.722;9.316;2023-02-10T06:40:38;100121.59;;;-7.95;100.00
2785;BME280;57944;48.722;9.316;2023-02-10T06:43:08;100124.97;;;-7.99;100.00
2785;BME280;57944;48.722;9.316;2023-02-10T06:45:38;100122.53;;;-8.02;100.00
2785;BME280;57944;48.722;9.316;2023-02-10T06:48:08;100122.59;;;-8.08;100.00
2785;BME280;57944;48.722;9.316;2023-02-10T06:50:41;100125.94;;;-8.09;100.00
2785;BME280;57944;48.722;9.316;2023-02-10T06:53:11;100134.06;;;-8.02;100.00
2785;BME280;57944;48.722;9.316;2023-02-10T06:55:41;100136.47;;;-7.96;100.00
2785;BME280;57944;48.722;9.316;2023-02-10T06:58:12;100143.00;;;-7.91;100.00
2785;BME280;57944;48.722;9.316;2023-02-10T07:00:42;100151.84;;;-7.74;100.00
2785;BME280;57944;48.722;9.316;2023-02-10T07:03:14;100155.72;;;-7.59;100.00
2785;BME280;57944;48.722;9.316;2023-02-10T07:05:46;100163.91;;;-7.56;100.00
2785;BME280;57944;48.722;9.316;2023-02-10T07:08:17;100161.38;;;-7.53;100.00
2785;BME280;57944;48.722;9.316;2023-02-10T07:10:47;100159.59;;;-7.45;100.00
2785;BME280;57944;48.722;9.316;2023-02-10T07:13:17;100162.72;;;-7.33;100.00
2785;BME280;57944;48.722;9.316;2023-02-10T07:15:47;100164.28;;;-7.26;100.00
2785;BME280;57944;48.722;9.316;2023-02-10T07:18:18;100160.94;;;-7.24;100.00
2785;BME280;57944;48.722;9.316;2023-02-10T07:20:51;100165.72;;;-7.16;100.00
2785;BME280;57944;48.722;9.316;2023-02-10T07:23:21;100162.13;;;-6.98;100.00
2785;BME280;57944;48.722;9.316;2023-02-10T07:26:03;100166.81;;;-6.83;100.00
2785;BME280;57944;48.722;9.316;2023-02-10T07:28:34;100172.22;;;-6.62;100.00
2785;BME280;57944;48.722;9.316;2023-02-10T07:31:04;100164.59;;;-6.53;100.00
2785;BME280;57944;48.722;9.316;2023-02-10T07:33:34;100163.72;;;-6.49;100.00
2785;BME280;57944;48.722;9.316;2023-02-10T07:36:08;100171.75;;;-6.38;100.00
2785;BME280;57944;48.722;9.316;2023-02-10T07:38:38;100172.16;;;-6.17;100.00
2785;BME280;57944;48.722;9.316;2023-02-10T07:41:08;100168.38;;;-5.96;100.00
2785;BME280;57944;48.722;9.316;2023-02-10T07:43:38;100172.84;;;-5.75;100.00
2785;BME280;57944;48.722;9.316;2023-02-10T07:46:13;100169.16;;;-5.58;100.00
2785;BME280;57944;48.722;9.316;2023-02-10T07:48:44;100178.75;;;-5.43;100.00
2785;BME280;57944;48.722;9.316;2023-02-10T07:51:17;100176.84;;;-5.33;100.00
2785;BME280;57944;48.722;9.316;2023-02-10T07:53:47;100178.53;;;-5.35;100.00
2785;BME280;57944;48.722;9.316;2023-02-10T07:56:17;100190.63;;;-5.22;100.00
2785;BME280;57944;48.722;9.316;2023-02-10T07:58:47;100189.66;;;-5.14;100.00
2785;BME280;57944;48.722;9.316;2023-02-10T08:01:17;100185.84;;;-4.95;100.00
2785;BME280;57944;48.722;9.316;2023-02-10T08:03:47;100170.59;;;-4.83;100.00
2785;BME280;57944;48.722;9.316;2023-02-10T08:06:23;100175.25;;;-4.70;100.00
2785;BME280;57944;48.722;9.316;2023-02-10T08:08:53;100177.16;;;-4.49;100.00
2785;BME280;57944;48.722;9.316;2023-02-10T08:11:24;100176.63;;;-4.31;100.00
2785;BME280;57944;48.722;9.316;2023-02-10T08:13:54;100179.53;;;-4.15;100.00
2785;BME280;57944;48.722;9.316;2023-02-10T08:16:24;100182.41;;;-3.72;100.00
2785;BME280;57944;48.722;9.316;2023-02-10T08:18:54;100175.53;;;-3.66;100.00
2785;BME280;57944;48.722;9.316;2023-02-10T08:21:28;100181.84;;;-3.29;100.00
2785;BME280;57944;48.722;9.316;2023-02-10T08:23:58;100175.34;;;-3.08;100.00
2785;BME280;57944;48.722;9.316;2023-02-10T08:26:28;100181.81;;;-3.27;100.00
2785;BME280;57944;48.722;9.316;2023-02-10T08:28:58;100188.16;;;-3.44;100.00
2785;BME280;57944;48.722;9.316;2023-02-10T08:31:29;100190.06;;;-3.52;100.00
2785;BME280;57944;48.722;9.316;2023-02-10T08:33:59;100193.63;;;-3.59;100.00
2785;BME280;57944;48.722;9.316;2023-02-10T08:36:32;100193.78;;;-3.65;100.00
2785;BME280;57944;48.722;9.316;2023-02-10T08:39:02;100198.97;;;-3.71;100.00
2785;BME280;57944;48.722;9.316;2023-02-10T08:41:32;100195.44;;;-3.64;100.00
2785;BME280;57944;48.722;9.316;2023-02-10T08:44:02;100205.41;;;-3.64;100.00
2785;BME280;57944;48.722;9.316;2023-02-10T08:46:34;100198.59;;;-3.59;100.00
2785;BME280;57944;48.722;9.316;2023-02-10T08:49:04;100204.81;;;-3.46;100.00
2785;BME280;57944;48.722;9.316;2023-02-10T08:51:37;100201.97;;;-3.33;100.00
2785;BME280;57944;48.722;9.316;2023-02-10T08:54:08;100212.19;;;-3.16;100.00
2785;BME280;57944;48.722;9.316;2023-02-10T08:56:38;100204.63;;;-3.13;100.00
2785;BME280;57944;48.722;9.316;2023-02-10T08:59:08;100200.50;;;-3.14;100.00
2785;BME280;57944;48.722;9.316;2023-02-10T09:01:39;100195.81;;;-2.98;100.00
2785;BME280;57944;48.722;9.316;2023-02-10T09:04:09;100203.28;;;-2.98;100.00
2785;BME280;57944;48.722;9.316;2023-02-10T09:06:42;100198.25;;;-2.97;100.00
2785;BME280;57944;48.722;9.316;2023-02-10T09:09:16;100203.16;;;-2.94;100.00
2785;BME280;57944;48.722;9.316;2023-02-10T09:11:46;100201.06;;;-2.81;100.00
2785;BME280;57944;48.722;9.316;2023-02-10T09:14:17;100203.34;;;-2.75;100.00
2785;BME280;57944;48.722;9.316;2023-02-10T09:16:47;100200.78;;;-2.73;100.00
2785;BME280;57944;48.722;9.316;2023-02-10T09:19:17;100202.91;;;-2.62;100.00
2785;BME280;57944;48.722;9.316;2023-02-10T09:21:50;100200.75;;;-2.48;100.00
2785;BME280;57944;48.722;9.316;2023-02-10T09:24:22;100195.16;;;-2.55;100.00
2785;BME280;57944;48.722;9.316;2023-02-10T09:26:53;100199.00;;;-2.46;100.00
2785;BME280;57944;48.722;9.316;2023-02-10T09:29:23;100190.91;;;-2.29;100.00
2785;BME280;57944;48.722;9.316;2023-02-10T09:31:53;100188.41;;;-2.29;100.00
2785;BME280;57944;48.722;9.316;2023-02-10T09:34:24;100186.03;;;-2.09;100.00
2785;BME280;57944;48.722;9.316;2023-02-10T09:36:59;100183.81;;;-1.94;100.00
2785;BME280;57944;48.722;9.316;2023-02-10T09:39:30;100184.56;;;-1.92;100.00
2785;BME280;57944;48.722;9.316;2023-02-10T09:42:09;100189.88;;;-1.78;100.00
2785;BME280;57944;48.722;9.316;2023-02-10T09:44:49;100194.47;;;-1.89;100.00
2785;BME280;57944;48.722;9.316;2023-02-10T09:47:38;100198.09;;;-1.76;100.00
2785;BME280;57944;48.722;9.316;2023-02-10T09:50:40;100199.25;;;-1.63;100.00
2785;BME280;57944;48.722;9.316;2023-02-10T09:53:19;100199.00;;;-1.57;100.00
2785;BME280;57944;48.722;9.316;2023-02-10T09:55:55;100190.47;;;-1.51;100.00
2785;BME280;57944;48.722;9.316;2023-02-10T09:58:32;100196.44;;;-1.33;100.00
2785;BME280;57944;48.722;9.316;2023-02-10T10:01:13;100194.00;;;-1.14;100.00
2785;BME280;57944;48.722;9.316;2023-02-10T10:03:49;100197.69;;;-1.02;100.00
2785;BME280;57944;48.722;9.316;2023-02-10T10:06:26;100202.31;;;-0.93;100.00
2785;BME280;57944;48.722;9.316;2023-02-10T10:09:16;100207.69;;;-0.82;100.00
2785;BME280;57944;48.722;9.316;2023-02-10T10:11:49;100197.63;;;-0.80;100.00
2785;BME280;57944;48.722;9.316;2023-02-10T10:14:23;100192.50;;;-0.58;100.00
2785;BME280;57944;48.722;9.316;2023-02-10T10:17:10;100192.56;;;-0.41;100.00
2785;BME280;57944;48.722;9.316;2023-02-10T10:19:56;100186.00;;;-0.25;100.00
2785;BME280;57944;48.722;9.316;2023-02-10T10:22:45;100187.34;;;-0.17;100.00
2785;BME280;57944;48.722;9.316;2023-02-10T10:25:56;100190.03;;;-0.03;100.00
2785;BME280;57944;48.722;9.316;2023-02-10T10:28:44;100187.84;;;0.08;100.00
2785;BME280;57944;48.722;9.316;2023-02-10T10:31:19;100187.59;;;0.14;100.00
2785;BME280;57944;48.722;9.316;2023-02-10T10:33:56;100186.56;;;0.18;100.00
2785;BME280;57944;48.722;9.316;2023-02-10T10:36:34;100186.44;;;0.39;100.00
2785;BME280;57944;48.722;9.316;2023-02-10T10:39:14;100183.06;;;0.40;100.00
2785;BME280;57944;48.722;9.316;2023-02-10T10:41:49;100179.50;;;0.44;100.00
2785;BME280;57944;48.722;9.316;2023-02-10T10:44:20;100184.38;;;0.47;100.00
2785;BME280;57944;48.722;9.316;2023-02-10T10:47:03;100183.22;;;0.54;100.00
2785;BME280;57944;48.722;9.316;2023-02-10T10:49:36;100180.84;;;0.69;100.00
2785;BME280;57944;48.722;9.316;2023-02-10T10:52:27;100175.81;;;0.86;100.00
2785;BME280;57944;48.722;9.316;2023-02-10T10:55:01;100179.06;;;0.88;100.00
2785;BME280;57944;48.722;9.316;2023-02-10T10:57:34;100176.81;;;0.99;100.00
2785;BME280;57944;48.722;9.316;2023-02-10T11:00:18;100185.38;;;1.13;100.00
2785;BME280;57944;48.722;9.316;2023-02-10T11:02:56;100182.75;;;1.31;100.00
2785;BME280;57944;48.722;9.316;2023-02-10T11:05:31;100181.78;;;1.50;100.00
2785;BME280;57944;48.722;9.316;2023-02-10T11:08:04;100176.44;;;1.56;100.00
2785;BME280;57944;48.722;9.316;2023-02-10T11:10:48;100170.94;;;1.65;100.00
2785;BME280;57944;48.722;9.316;2023-02-10T11:13:25;100167.63;;;1.65;100.00
2785;BME280;57944;48.722;9.316;2023-02-10T11:16:03;100167.72;;;1.79;100.00
2785;BME280;57944;48.722;9.316;2023-02-10T11:18:34;100158.53;;;1.78;100.00
2785;BME280;57944;48.722;9.316;2023-02-10T11:21:07;100155.78;;;1.83;100.00
2785;BME280;57944;48.722;9.316;2023-02-10T11:23:48;100155.13;;;1.79;100.00
2785;BME280;57944;48.722;9.316;2023-02-10T11:26:21;100150.69;;;1.84;100.00
2785;BME280;57944;48.722;9.316;2023-02-10T11:28:55;100160.69;;;2.00;100.00
2785;BME280;57944;48.722;9.316;2023-02-10T11:31:30;100148.78;;;2.04;100.00
2785;BME280;57944;48.722;9.316;2023-02-10T11:34:17;100159.25;;;2.12;100.00
2785;BME280;57944;48.722;9.316;2023-02-10T11:36:51;100148.69;;;2.05;100.00
2785;BME280;57944;48.722;9.316;2023-02-10T11:39:27;100153.78;;;2.19;100.00
2785;BME280;57944;48.722;9.316;2023-02-10T11:42:08;100153.44;;;1.95;100.00
2785;BME280;57944;48.722;9.316;2023-02-10T11:44:41;100156.00;;;2.10;100.00
2785;BME280;57944;48.722;9.316;2023-02-10T11:47:14;100152.41;;;2.14;100.00
2785;BME280;57944;48.722;9.316;2023-02-10T11:49:48;100147.72;;;2.08;100.00
2785;BME280;57944;48.722;9.316;2023-02-10T11:52:22;100156.09;;;2.38;100.00
2785;BME280;57944;48.722;9.316;2023-02-10T11:54:52;100145.97;;;2.54;100.00
2785;BME280;57944;48.722;9.316;2023-02-10T11:57:37;100140.44;;;2.33;100.00
2785;BME280;57944;48.722;9.316;2023-02-10T12:00:36;100140.81;;;2.41;100.00
2785;BME280;57944;48.722;9.316;2023-02-10T12:03:35;100136.56;;;2.72;100.00
2785;BME280;57944;48.722;9.316;2023-02-10T12:06:21;100130.09;;;2.68;100.00
2785;BME280;57944;48.722;9.316;2023-02-10T12:09:15;100122.72;;;2.79;100.00
2785;BME280;57944;48.722;9.316;2023-02-10T12:12:01;100131.88;;;3.09;100.00
2785;BME280;57944;48.722;9.316;2023-02-10T12:14:49;100128.84;;;3.18;98.32
2785;BME280;57944;48.722;9.316;2023-02-10T12:17:29;100127.19;;;3.31;97.63
2785;BME280;57944;48.722;9.316;2023-02-10T12:20:26;100129.88;;;3.43;99.13
2785;BME280;57944;48.722;9.316;2023-02-10T12:23:22;100117.38;;;3.41;94.85
2785;BME280;57944;48.722;9.316;2023-02-10T12:26:07;100120.13;;;3.51;78.33
2785;BME280;57944;48.722;9.316;2023-02-10T12:28:56;100121.38;;;3.58;76.99
2785;BME280;57944;48.722;9.316;2023-02-10T12:31:41;100116.09;;;3.75;78.26
2785;BME280;57944;48.722;9.316;2023-02-10T12:34:39;100105.63;;;3.81;77.49
2785;BME280;57944;48.722;9.316;2023-02-10T12:37:24;100099.50;;;3.86;77.69
2785;BME280;57944;48.722;9.316;2023-02-10T12:43:14;100100.66;;;4.07;75.59
2785;BME280;57944;48.722;9.316;2023-02-10T12:45:58;100085.31;;;4.10;83.98
2785;BME280;57944;48.722;9.316;2023-02-10T12:48:38;100090.91;;;4.15;80.30
2785;BME280;57944;48.722;9.316;2023-02-10T12:51:37;100089.28;;;4.27;70.58
2785;BME280;57944;48.722;9.316;2023-02-10T12:54:18;100081.28;;;4.20;71.66
2785;BME280;57944;48.722;9.316;2023-02-10T12:57:15;100075.25;;;4.23;75.96
2785;BME280;57944;48.722;9.316;2023-02-10T12:59:56;100084.44;;;4.24;80.01
2785;BME280;57944;48.722;9.316;2023-02-10T13:02:38;100083.31;;;4.15;79.21
2785;BME280;57944;48.722;9.316;2023-02-10T13:05:16;100082.53;;;4.28;74.84
2785;BME280;57944;48.722;9.316;2023-02-10T13:07:54;100083.31;;;4.15;71.27
2785;BME280;57944;48.722;9.316;2023-02-10T13:10:33;100073.22;;;4.28;69.41
2785;BME280;57944;48.722;9.316;2023-02-10T13:13:12;100069.81;;;4.42;71.57
2785;BME280;57944;48.722;9.316;2023-02-10T13:15:49;100071.03;;;4.49;73.89
2785;BME280;57944;48.722;9.316;2023-02-10T13:18:23;100059.28;;;4.10;75.78
2785;BME280;57944;48.722;9.316;2023-02-10T13:21:04;100071.22;;;4.33;76.55
2785;BME280;57944;48.722;9.316;2023-02-10T13:23:45;100062.13;;;4.56;69.03
2785;BME280;57944;48.722;9.316;2023-02-10T13:26:49;100063.13;;;4.66;62.97
2785;BME280;57944;48.722;9.316;2023-02-10T13:29:38;100064.53;;;4.19;70.42
2785;BME280;57944;48.722;9.316;2023-02-10T13:32:37;100060.22;;;4.21;73.25
2785;BME280;57944;48.722;9.316;2023-02-10T13:35:17;100062.94;;;4.44;69.30
2785;BME280;57944;48.722;9.316;2023-02-10T13:37:52;100057.88;;;4.18;77.20
2785;BME280;57944;48.722;9.316;2023-02-10T13:40:34;100061.50;;;4.40;75.11